Terminal Aerodrome Forecast
Issued by NWS

Home | Current Version | Previous Version | Text Only | Print | Product List | Glossary On
Versions: 1 2 3 4 5 6 7 8 9 10 11 12 13 14 15 16 17 18 19 20 21 22 23 24 25 26 27
000
FTUS42 KJAX 231720
TAFVQQ
TAF
KVQQ 231720Z 2318/2418 04012G18KT 5SM -RA BKN008 OVC015
      TEMPO 2318/2322 SCT008 OVC015
     FM240100 36008KT 4SM -RA BR BKN005 OVC010
      TEMPO 2407/2411 2SM BR OVC005
     FM241400 02010KT P6SM SCT005 OVC015=

USA.gov is the U.S. government's official web portal to all federal, state and local government web resources and services.